Gifford, SC (29923)

4:37 AM EDT on September 16, 2014 (GMT -0400)
Joe Miley Road | Change Station
CLOSE
Current Station
Personal Weather Station
Location: Brunson, SC
Elevation: 130 ft
Nearby Weather Stations

Elev 130 ft 32.94 °N, 81.13 °W | Updated 4 minutes ago

Partly Cloudy
Partly Cloudy
71.6 °F
Feels Like 71.6 °F
N
0.0
Wind Variable Wind from West

Today
High -- | Low -- °F
--% Chance of Precip.
Yesterday
High -- | Low -- °F
Precip. -- in
7:09 AM 7:29 PM
Waning Gibbous, 47% visible
Pressure 30.08 in
Visibility 4.0 miles
Clouds Clear
Dew Point 71 °F
Humidity 99%
Rainfall 0.00 in
Snow Depth Not available.
UV 0 out of 12
Pollen 7.90 out of 12
Air Quality Not available.
Flu Activity Not available.
METAR KJYL 160815Z AUTO 00000KT 4SM BR CLR 23/23 A3008 RMK AO2 LTG DSNT SW T02290225

More Conditions Fewer Conditions

Pressure 30.08 in
Visibility 4.0 miles
Clouds Clear
Dew Point 71 °F
Humidity 99%
Rainfall 0.00 in
Snow Depth Not available.
UV 0 out of 12
Pollen 7.90 out of 12
Air Quality Not available.
Flu Activity Not available.
METAR KJYL 160815Z AUTO 00000KT 4SM BR CLR 23/23 A3008 RMK AO2 LTG DSNT SW T02290225

More Conditions Fewer Conditions

10-Day Weather Forecast

Almanac

Astronomy

Sep. 16, 2014 Rise Set
Actual Time 7:09 AM EDT 7:29 PM EDT
Civil Twilight 6:44 AM EDT 7:54 PM EDT
Nautical Twilight 6:15 AM EDT 8:23 PM EDT
Astronomical Twilight 5:46 AM EDT 8:52 PM EDT
Moon 12:31 AM EDT 2:38 PM EDT
Length of Visible Light 13h 09m
Length of Day
12h 20m
Tomorrow will be 2m 0s shorter.
Waning Gibbous, 47% of the Moon is Illuminated
Today
Waning Gibbous
Sep 24
New
Oct 1
First Quarter
Oct 8
Full
Oct 15
Last Quarter

Today's Extremes

State Highs State Lows

Community

WunderPhotos

Upload Photos

1,753,712 photos uploaded!

WunderBlogs® & News

Nearby

Snow Depth

Station Depth Elevation
No new snow has been reported.

Earthquake Activity

City Distance Mag. Time & Date
No recent earthquake activity has been reported nearby.
Minimum magnitude displayed is 2.5.

Coastal Water Temperatures

Place Temperature
No Stations Reporting

Nearby Weather Stations